Bootsie B, — WDF9484 — position and weather

sailwx.info

Track history (hours):
 
Tides and Currents Weather Stations Pressure Air Temp Water Temp Dewpoint Dewpoint Depression Visibility Wind Speed Wind Dir Waves Ship Positions

Bootsie B,

Owner: Marquette Transp[ortation Co. LLC, Paducah, KY. More information available from US FCC via Universal Licensing System and Coast Guard Vessel Documentation Center.

Last reported at 2016-Apr-22 03:04 UTC. Time now 2016-May-02 21:18 UTC.
Position N 32°41' W 091°06'.
Warning: this ship's position is 10 days out of date.

Length 57 m; draft 2 m.

Type: Towing. MMSI: 367505630.

Date/timePositionNaut miles runAvg speedWind from/ knotsBaromVisibWave heightAir tempDewpointWater temp
2016-Apr-22 03:04N 32°41' W 091°06'2 4.4
2016-Apr-22 02:33N 32°40' W 091°08'4 4.1
2016-Apr-22 01:33N 32°36' W 091°08'4 4.2
2016-Apr-22 00:30N 32°32' W 091°06'4 4.2
2016-Apr-21 23:33N 32°28' W 091°06'5 4.7
2016-Apr-21 22:33N 32°26' W 091°01'4 4.0
2016-Apr-21 21:33N 32°22' W 091°00'4 4.4
2016-Apr-21 20:33N 32°20' W 090°55'3 2.5
2016-Apr-21 19:33N 32°18' W 090°55'1 0.9
2016-Apr-21 18:33N 32°17' W 090°56'4 3.9
2016-Apr-21 17:33N 32°14' W 090°59'5 4.4
2016-Apr-21 16:32N 32°10' W 090°60'3 3.6
2016-Apr-21 15:33N 32°07' W 091°03'3 3.2
2016-Apr-21 14:34N 32°07' W 091°06'5 3.4
2016-Apr-21 13:12N 32°03' W 091°04'4 4.7
2016-Apr-21 12:24N 31°60' W 091°06'  
2016-Apr-14 05:32N 32°04' W 091°03'4 4.4
2016-Apr-14 04:33N 32°08' W 091°05'8 8.3
2016-Apr-14 03:33N 32°14' W 090°59'5 4.8
2016-Apr-14 02:33N 32°18' W 090°55'4 4.2
2016-Apr-14 01:33N 32°21' W 090°59'9 8.7
2016-Apr-14 00:33N 32°28' W 091°06'9 9.3
2016-Apr-13 23:33N 32°37' W 091°09'  
Track history (hours):
 
Tides and Currents Weather Stations Pressure Air Temp Water Temp Dewpoint Dewpoint Depression Visibility Wind Speed Wind Dir Waves Ship Positions

Bootsie B,

Owner: Marquette Transp[ortation Co. LLC, Paducah, KY. More information available from US FCC via Universal Licensing System and Coast Guard Vessel Documentation Center.

Last reported at 2016-Apr-22 03:04 UTC. Time now 2016-May-02 21:18 UTC.
Position N 32°41' W 091°06'.
Warning: this ship's position is 10 days out of date.

Length 57 m; draft 2 m.

Type: Towing. MMSI: 367505630.

Date/timePositionNaut miles runAvg speedWind from/ knotsBaromVisibWave heightAir tempDewpointWater temp
2016-Apr-22 03:04N 32°41' W 091°06'2 4.4
2016-Apr-22 02:33N 32°40' W 091°08'4 4.1
2016-Apr-22 01:33N 32°36' W 091°08'4 4.2
2016-Apr-22 00:30N 32°32' W 091°06'4 4.2
2016-Apr-21 23:33N 32°28' W 091°06'5 4.7
2016-Apr-21 22:33N 32°26' W 091°01'4 4.0
2016-Apr-21 21:33N 32°22' W 091°00'4 4.4
2016-Apr-21 20:33N 32°20' W 090°55'3 2.5
2016-Apr-21 19:33N 32°18' W 090°55'1 0.9
2016-Apr-21 18:33N 32°17' W 090°56'4 3.9
2016-Apr-21 17:33N 32°14' W 090°59'5 4.4
2016-Apr-21 16:32N 32°10' W 090°60'3 3.6
2016-Apr-21 15:33N 32°07' W 091°03'3 3.2
2016-Apr-21 14:34N 32°07' W 091°06'5 3.4
2016-Apr-21 13:12N 32°03' W 091°04'4 4.7
2016-Apr-21 12:24N 31°60' W 091°06'  
2016-Apr-14 05:32N 32°04' W 091°03'4 4.4
2016-Apr-14 04:33N 32°08' W 091°05'8 8.3
2016-Apr-14 03:33N 32°14' W 090°59'5 4.8
2016-Apr-14 02:33N 32°18' W 090°55'4 4.2
2016-Apr-14 01:33N 32°21' W 090°59'9 8.7
2016-Apr-14 00:33N 32°28' W 091°06'9 9.3
2016-Apr-13 23:33N 32°37' W 091°09'  

Dump ship's entire track history